Weather Melbourne :: Current Conditions and Historical Data

 
Daily Summary for August 21, 2014 Units:  Both    English   Metric
« Previous Day
Next Day »
Daily Weekly Monthly Yearly Custom
  Current: High: Low: Average:
Temperature: 57.7 °F /  14.3 °C 63.3 °F /  17.4 °C 42.0 °F /  5.6 °C 51.8 °F /  11 °C
Dew Point: 47.2 °F /  8.4 °C 50.2 °F /  10.1 °C 39.3 °F /  4.1 °C 44.5 °F /  6.9 °C
Humidity: 68 % 93 % 57 % 77 %
Wind Speed: 0.0 mph /  0 km/h 11.5 mph /  18.5 km/h - 1.8 mph /  2.9 km/h
Wind Gust: 0.0 mph /  0 km/h 11.5 mph /  18.5 km/h - -
Wind:Calm - - East
Pressure: 30.34 in /  1027.3 hPa 30.40 in /  1029.3 hPa 30.32 in /  1026.6 hPa -
Precipitation: 0.00 in /  0 mm      
Melbourne, Australia Weather Graphs
 
 
Melbourne, current snapshot. Courtesy of citylink.com.au
Weather Melbourne

Melbourne Weather Radar




Weather in Melbourne, AU
Hourly Data for August 21, 2014
Time Temperature Dew Point Pressure Wind Wind Speed Wind Gust Humidity Rainfall Rate (Hourly) solar Conditions
00:00 49.7 °F /  9.8 °C 43.1 °F /  6.2 °C 30.34 in /  1027.3 hPa SSE 3.5 mph /  5.6 km/h 3.5 mph /  5.6 km/h 78 % 0.00 in /  0 mm 0.0 W/m2 BKN
00:05 49.7 °F /  9.8 °C 43.1 °F /  6.2 °C 30.34 in /  1027.3 hPa South 1.2 mph /  1.9 km/h   78 % 0.00 in /  0 mm 0.0 W/m2 BKN
00:10 49.6 °F /  9.8 °C 43.0 °F /  6.1 °C 30.34 in /  1027.3 hPa SSE 2.3 mph /  3.7 km/h 2.3 mph /  3.7 km/h 78 % 0.00 in /  0 mm 0.0 W/m2 BKN
00:15 49.6 °F /  9.8 °C 43.0 °F /  6.1 °C 30.34 in /  1027.3 hPa Calm     78 % 0.00 in /  0 mm 0.0 W/m2 BKN
00:20 49.6 °F /  9.8 °C 43.0 °F /  6.1 °C 30.34 in /  1027.3 hPa Calm     78 % 0.00 in /  0 mm 0.0 W/m2 BKN
00:25 49.6 °F /  9.8 °C 43.0 °F /  6.1 °C 30.34 in /  1027.3 hPa South 2.3 mph /  3.7 km/h 2.3 mph /  3.7 km/h 78 % 0.00 in /  0 mm 0.0 W/m2 BKN
00:30 49.5 °F /  9.7 °C 42.9 °F /  6.1 °C 30.34 in /  1027.3 hPa South 3.5 mph /  5.6 km/h 3.5 mph /  5.6 km/h 78 % 0.00 in /  0 mm 0.0 W/m2 BKN
00:35 49.5 °F /  9.7 °C 42.9 °F /  6.1 °C 30.34 in /  1027.3 hPa South 1.2 mph /  1.9 km/h 1.2 mph /  1.9 km/h 78 % 0.00 in /  0 mm 0.0 W/m2 BKN
00:40 49.4 °F /  9.7 °C 42.8 °F /  6 °C 30.34 in /  1027.3 hPa SSE 3.5 mph /  5.6 km/h 3.5 mph /  5.6 km/h 78 % 0.00 in /  0 mm 0.0 W/m2 BKN
00:45 49.4 °F /  9.7 °C 42.8 °F /  6 °C 30.34 in /  1027.3 hPa South 3.5 mph /  5.6 km/h 3.5 mph /  5.6 km/h 78 % 0.00 in /  0 mm 0.0 W/m2 BKN
00:50 49.4 °F /  9.7 °C 42.8 °F /  6 °C 30.34 in /  1027.3 hPa SSW 3.5 mph /  5.6 km/h 3.5 mph /  5.6 km/h 78 % 0.00 in /  0 mm 0.0 W/m2 BKN
00:55 49.4 °F /  9.7 °C 42.8 °F /  6 °C 30.34 in /  1027.3 hPa South 2.3 mph /  3.7 km/h 2.3 mph /  3.7 km/h 78 % 0.00 in /  0 mm 0.0 W/m2 BKN
01:00 49.3 °F /  9.6 °C 43.1 °F /  6.2 °C 30.34 in /  1027.3 hPa South 1.2 mph /  1.9 km/h 1.2 mph /  1.9 km/h 79 % 0.00 in /  0 mm 0.0 W/m2 BKN
01:05 49.2 °F /  9.6 °C 43.0 °F /  6.1 °C 30.34 in /  1027.3 hPa Calm     79 % 0.00 in /  0 mm 0.0 W/m2 BKN
01:10 49.2 °F /  9.6 °C 43.0 °F /  6.1 °C 30.34 in /  1027.3 hPa Calm     79 % 0.00 in /  0 mm 0.0 W/m2 BKN
01:15 49.1 °F /  9.5 °C 42.9 °F /  6.1 °C 30.34 in /  1027.3 hPa South 2.3 mph /  3.7 km/h 2.3 mph /  3.7 km/h 79 % 0.00 in /  0 mm 0.0 W/m2 BKN
01:20 49.0 °F /  9.4 °C 42.8 °F /  6 °C 30.34 in /  1027.3 hPa South 2.3 mph /  3.7 km/h   79 % 0.00 in /  0 mm 0.0 W/m2 BKN
01:25 49.0 °F /  9.4 °C 42.8 °F /  6 °C 30.33 in /  1027 hPa SSW 5.0 mph /  8 km/h 5.0 mph /  8 km/h 79 % 0.00 in /  0 mm 0.0 W/m2 BKN
01:30 48.8 °F /  9.3 °C 42.6 °F /  5.9 °C 30.34 in /  1027.3 hPa South 1.0 mph /  1.6 km/h 1.0 mph /  1.6 km/h 79 % 0.00 in /  0 mm 0.0 W/m2 BKN
01:35 48.7 °F /  9.3 °C 42.5 °F /  5.8 °C 30.34 in /  1027.3 hPa South 1.2 mph /  1.9 km/h   79 % 0.00 in /  0 mm 0.0 W/m2 BKN
01:40 48.6 °F /  9.2 °C 42.4 °F /  5.8 °C 30.34 in /  1027.3 hPa Calm     79 % 0.00 in /  0 mm 0.0 W/m2 BKN
01:45 48.4 °F /  9.1 °C 42.2 °F /  5.7 °C 30.34 in /  1027.3 hPa Calm     79 % 0.00 in /  0 mm 0.0 W/m2 BKN
01:50 48.3 °F /  9.1 °C 42.1 °F /  5.6 °C 30.34 in /  1027.3 hPa Calm     79 % 0.00 in /  0 mm 0.0 W/m2 BKN
01:55 48.1 °F /  8.9 °C 41.9 °F /  5.5 °C 30.34 in /  1027.3 hPa Calm     79 % 0.00 in /  0 mm 0.0 W/m2 BKN
02:00 47.9 °F /  8.8 °C 41.7 °F /  5.4 °C 30.34 in /  1027.3 hPa Calm     79 % 0.00 in /  0 mm 0.0 W/m2 BKN
02:05 47.7 °F /  8.7 °C 41.8 °F /  5.4 °C 30.34 in /  1027.3 hPa Calm     80 % 0.00 in /  0 mm 0.0 W/m2 BKN
02:10 47.4 °F /  8.6 °C 41.5 °F /  5.3 °C 30.34 in /  1027.3 hPa Calm     80 % 0.00 in /  0 mm 0.0 W/m2 BKN
02:15 47.3 °F /  8.5 °C 41.4 °F /  5.2 °C 30.34 in /  1027.3 hPa Calm     80 % 0.00 in /  0 mm 0.0 W/m2 BKN
02:20 47.2 °F /  8.4 °C 41.6 °F /  5.3 °C 30.34 in /  1027.3 hPa Calm     81 % 0.00 in /  0 mm 0.0 W/m2 BKN
02:25 47.0 °F /  8.3 °C 41.5 °F /  5.3 °C 30.34 in /  1027.3 hPa Calm     81 % 0.00 in /  0 mm 0.0 W/m2 BKN
02:30 46.9 °F /  8.3 °C 41.4 °F /  5.2 °C 30.34 in /  1027.3 hPa Calm     81 % 0.00 in /  0 mm 0.0 W/m2 BKN
02:35 46.8 °F /  8.2 °C 41.3 °F /  5.2 °C 30.34 in /  1027.3 hPa Calm   1.0 mph /  1.6 km/h 81 % 0.00 in /  0 mm 0.0 W/m2 BKN
02:40 46.6 °F /  8.1 °C 41.1 °F /  5.1 °C 30.34 in /  1027.3 hPa Calm     81 % 0.00 in /  0 mm 0.0 W/m2 BKN
02:45 46.5 °F /  8.1 °C 41.3 °F /  5.2 °C 30.34 in /  1027.3 hPa Calm     82 % 0.00 in /  0 mm 0.0 W/m2 BKN
02:50 46.3 °F /  7.9 °C 41.1 °F /  5.1 °C 30.34 in /  1027.3 hPa Calm     82 % 0.00 in /  0 mm 0.0 W/m2 BKN
02:55 46.2 °F /  7.9 °C 41.0 °F /  5 °C 30.34 in /  1027.3 hPa Calm     82 % 0.00 in /  0 mm 0.0 W/m2 BKN
03:00 46.1 °F /  7.8 °C 40.9 °F /  4.9 °C 30.34 in /  1027.3 hPa Calm     82 % 0.00 in /  0 mm 0.0 W/m2 BKN
03:05 46.0 °F /  7.8 °C 40.8 °F /  4.9 °C 30.34 in /  1027.3 hPa Calm     82 % 0.00 in /  0 mm 0.0 W/m2 BKN
03:10 45.9 °F /  7.7 °C 41.0 °F /  5 °C 30.34 in /  1027.3 hPa Calm     83 % 0.00 in /  0 mm 0.0 W/m2 BKN
03:15 45.7 °F /  7.6 °C 41.1 °F /  5.1 °C 30.34 in /  1027.3 hPa Calm     84 % 0.00 in /  0 mm 0.0 W/m2 BKN
03:20 45.5 °F /  7.5 °C 40.9 °F /  4.9 °C 30.34 in /  1027.3 hPa Calm     84 % 0.00 in /  0 mm 0.0 W/m2 BKN
03:25 45.4 °F /  7.4 °C 40.8 °F /  4.9 °C 30.34 in /  1027.3 hPa Calm     84 % 0.00 in /  0 mm 0.0 W/m2 BKN
03:30 45.2 °F /  7.3 °C 40.6 °F /  4.8 °C 30.34 in /  1027.3 hPa Calm     84 % 0.00 in /  0 mm 0.0 W/m2 BKN
03:35 45.0 °F /  7.2 °C 40.5 °F /  4.7 °C 30.34 in /  1027.3 hPa Calm   1.0 mph /  1.6 km/h 84 % 0.00 in /  0 mm 0.0 W/m2 BKN
03:40 44.8 °F /  7.1 °C 40.3 °F /  4.6 °C 30.34 in /  1027.3 hPa Calm   1.0 mph /  1.6 km/h 84 % 0.00 in /  0 mm 0.0 W/m2 BKN
03:45 44.6 °F /  7 °C 40.1 °F /  4.5 °C 30.34 in /  1027.3 hPa Calm     84 % 0.00 in /  0 mm 0.0 W/m2 BKN
03:50 44.5 °F /  6.9 °C 40.3 °F /  4.6 °C 30.34 in /  1027.3 hPa Calm     85 % 0.00 in /  0 mm 0.0 W/m2 BKN
03:55 44.4 °F /  6.9 °C 40.5 °F /  4.7 °C 30.34 in /  1027.3 hPa Calm     86 % 0.00 in /  0 mm 0.0 W/m2 BKN
04:00 44.3 °F /  6.8 °C 40.4 °F /  4.7 °C 30.34 in /  1027.3 hPa Calm     86 % 0.00 in /  0 mm 0.0 W/m2 BKN
04:05 44.2 °F /  6.8 °C 40.3 °F /  4.6 °C 30.34 in /  1027.3 hPa Calm     86 % 0.00 in /  0 mm 0.0 W/m2 BKN
04:10 44.2 °F /  6.8 °C 40.2 °F /  4.6 °C 30.34 in /  1027.3 hPa Calm     86 % 0.00 in /  0 mm 0.0 W/m2 BKN
04:15 44.0 °F /  6.7 °C 40.4 °F /  4.7 °C 30.35 in /  1027.7 hPa Calm     87 % 0.00 in /  0 mm 0.0 W/m2 BKN
04:20 43.9 °F /  6.6 °C 40.3 °F /  4.6 °C 30.35 in /  1027.7 hPa NNW 1.0 mph /  1.6 km/h 4.0 mph /  6.4 km/h 87 % 0.00 in /  0 mm 0.0 W/m2 BKN
04:25 43.8 °F /  6.6 °C 40.2 °F /  4.6 °C 30.35 in /  1027.7 hPa Calm   2.0 mph /  3.2 km/h 87 % 0.00 in /  0 mm 0.0 W/m2 BKN
04:30 43.8 °F /  6.6 °C 40.5 °F /  4.7 °C 30.35 in /  1027.7 hPa North 2.3 mph /  3.7 km/h 2.3 mph /  3.7 km/h 88 % 0.00 in /  0 mm 0.0 W/m2 BKN
04:35 43.8 °F /  6.6 °C 40.5 °F /  4.7 °C 30.35 in /  1027.7 hPa Calm     88 % 0.00 in /  0 mm 0.0 W/m2 BKN
04:40 43.7 °F /  6.5 °C 40.4 °F /  4.7 °C 30.35 in /  1027.7 hPa North 1.2 mph /  1.9 km/h 1.2 mph /  1.9 km/h 88 % 0.00 in /  0 mm 0.0 W/m2 BKN
04:45 43.7 °F /  6.5 °C 40.7 °F /  4.8 °C 30.35 in /  1027.7 hPa North 1.2 mph /  1.9 km/h 1.2 mph /  1.9 km/h 89 % 0.00 in /  0 mm 0.0 W/m2 BKN
04:50 43.8 °F /  6.6 °C 40.8 °F /  4.9 °C 30.35 in /  1027.7 hPa North 1.2 mph /  1.9 km/h 1.2 mph /  1.9 km/h 89 % 0.00 in /  0 mm 0.0 W/m2 BKN
04:55 43.8 °F /  6.6 °C 40.8 °F /  4.9 °C 30.35 in /  1027.7 hPa North 2.3 mph /  3.7 km/h 2.3 mph /  3.7 km/h 89 % 0.00 in /  0 mm 0.0 W/m2 BKN
05:00 43.7 °F /  6.5 °C 40.7 °F /  4.8 °C 30.35 in /  1027.7 hPa North 1.2 mph /  1.9 km/h 1.2 mph /  1.9 km/h 89 % 0.00 in /  0 mm 0.0 W/m2 BKN
05:05 43.7 °F /  6.5 °C 40.7 °F /  4.8 °C 30.35 in /  1027.7 hPa NE 1.2 mph /  1.9 km/h 1.2 mph /  1.9 km/h 89 % 0.00 in /  0 mm 0.0 W/m2 BKN
05:10 43.7 °F /  6.5 °C 40.7 °F /  4.8 °C 30.35 in /  1027.7 hPa Calm     89 % 0.00 in /  0 mm 0.0 W/m2 BKN
05:15 43.7 °F /  6.5 °C 40.7 °F /  4.8 °C 30.35 in /  1027.7 hPa Calm     89 % 0.00 in /  0 mm 0.0 W/m2 BKN
05:20 43.6 °F /  6.4 °C 40.6 °F /  4.8 °C 30.35 in /  1027.7 hPa Calm   0.2 mph /  0.3 km/h 89 % 0.00 in /  0 mm 0.0 W/m2 BKN
05:25 43.6 °F /  6.4 °C 40.9 °F /  4.9 °C 30.35 in /  1027.7 hPa Calm     90 % 0.00 in /  0 mm 0.0 W/m2 BKN
05:30 43.6 °F /  6.4 °C 40.9 °F /  4.9 °C 30.36 in /  1028 hPa NE 2.3 mph /  3.7 km/h 2.3 mph /  3.7 km/h 90 % 0.00 in /  0 mm 0.0 W/m2 BKN
05:35 43.5 °F /  6.4 °C 40.8 °F /  4.9 °C 30.36 in /  1028 hPa NE 2.0 mph /  3.2 km/h 2.0 mph /  3.2 km/h 90 % 0.00 in /  0 mm 0.0 W/m2 BKN
05:40 43.5 °F /  6.4 °C 40.8 °F /  4.9 °C 30.36 in /  1028 hPa NE 2.3 mph /  3.7 km/h 2.3 mph /  3.7 km/h 90 % 0.00 in /  0 mm 0.0 W/m2 BKN
05:45 43.4 °F /  6.3 °C 40.7 °F /  4.8 °C 30.36 in /  1028 hPa Calm     90 % 0.00 in /  0 mm 0.0 W/m2 BKN
05:50 43.5 °F /  6.4 °C 40.8 °F /  4.9 °C 30.36 in /  1028 hPa Calm     90 % 0.00 in /  0 mm 0.0 W/m2 BKN
05:55 43.5 °F /  6.4 °C 40.8 °F /  4.9 °C 30.36 in /  1028 hPa Calm     90 % 0.00 in /  0 mm 0.0 W/m2 BKN
06:00 43.4 °F /  6.3 °C 40.7 °F /  4.8 °C 30.36 in /  1028 hPa Calm     90 % 0.00 in /  0 mm 0.0 W/m2 BKN
06:05 43.4 °F /  6.3 °C 40.7 °F /  4.8 °C 30.36 in /  1028 hPa Calm     90 % 0.00 in /  0 mm 0.0 W/m2 BKN
06:10 43.3 °F /  6.3 °C 40.6 °F /  4.8 °C 30.36 in /  1028 hPa Calm     90 % 0.00 in /  0 mm 0.0 W/m2 BKN
06:15 43.3 °F /  6.3 °C 40.6 °F /  4.8 °C 30.36 in /  1028 hPa Calm     90 % 0.00 in /  0 mm 0.0 W/m2 BKN
06:20 43.2 °F /  6.2 °C 40.5 °F /  4.7 °C 30.36 in /  1028 hPa Calm     90 % 0.00 in /  0 mm 0.0 W/m2 BKN
06:25 43.2 °F /  6.2 °C 40.5 °F /  4.7 °C 30.36 in /  1028 hPa Calm     90 % 0.00 in /  0 mm 0.0 W/m2 BKN
06:30 43.1 °F /  6.2 °C 40.4 °F /  4.7 °C 30.36 in /  1028 hPa Calm     90 % 0.00 in /  0 mm 0.0 W/m2 BKN
06:35 43.1 °F /  6.2 °C 40.7 °F /  4.8 °C 30.36 in /  1028 hPa Calm     91 % 0.00 in /  0 mm 0.0 W/m2 BKN
06:40 43.1 °F /  6.2 °C 40.4 °F /  4.7 °C 30.36 in /  1028 hPa Calm     90 % 0.00 in /  0 mm 0.0 W/m2 BKN
06:45 42.9 °F /  6.1 °C 40.2 °F /  4.6 °C 30.36 in /  1028 hPa East 3.5 mph /  5.6 km/h 3.5 mph /  5.6 km/h 90 % 0.00 in /  0 mm 0.0 W/m2 BKN
06:50 42.7 °F /  5.9 °C 40.0 °F /  4.4 °C 30.36 in /  1028 hPa Calm     90 % 0.00 in /  0 mm 0.0 W/m2 SCT
06:55 42.5 °F /  5.8 °C 39.8 °F /  4.3 °C 30.36 in /  1028 hPa ENE 2.3 mph /  3.7 km/h 2.3 mph /  3.7 km/h 90 % 0.00 in /  0 mm 0.0 W/m2 SCT
07:00 42.4 °F /  5.8 °C 39.7 °F /  4.3 °C 30.36 in /  1028 hPa ENE 2.3 mph /  3.7 km/h 2.3 mph /  3.7 km/h 90 % 0.00 in /  0 mm 0.0 W/m2 SCT
07:05 42.2 °F /  5.7 °C 39.5 °F /  4.2 °C 30.37 in /  1028.3 hPa ENE 2.3 mph /  3.7 km/h 2.3 mph /  3.7 km/h 90 % 0.00 in /  0 mm 5.0 W/m2 SCT
07:10 42.0 °F /  5.6 °C 39.3 °F /  4.1 °C 30.37 in /  1028.3 hPa NE 4.0 mph /  6.4 km/h 4.0 mph /  6.4 km/h 90 % 0.00 in /  0 mm 7.0 W/m2 SCT
07:15 42.0 °F /  5.6 °C 39.3 °F /  4.1 °C 30.37 in /  1028.3 hPa NE 3.5 mph /  5.6 km/h 3.5 mph /  5.6 km/h 90 % 0.00 in /  0 mm 11.0 W/m2 SCT
07:20 42.0 °F /  5.6 °C 39.6 °F /  4.2 °C 30.37 in /  1028.3 hPa NE 1.2 mph /  1.9 km/h   91 % 0.00 in /  0 mm 16.0 W/m2 BKN
07:25 42.0 °F /  5.6 °C 39.6 °F /  4.2 °C 30.38 in /  1028.7 hPa NE 2.3 mph /  3.7 km/h   91 % 0.00 in /  0 mm 21.0 W/m2 BKN
07:30 42.0 °F /  5.6 °C 39.6 °F /  4.2 °C 30.37 in /  1028.3 hPa NE 1.2 mph /  1.9 km/h 1.2 mph /  1.9 km/h 91 % 0.00 in /  0 mm 26.0 W/m2 BKN
07:35 42.1 °F /  5.6 °C 39.7 °F /  4.3 °C 30.38 in /  1028.7 hPa Calm     91 % 0.00 in /  0 mm 33.0 W/m2 BKN
07:40 42.2 °F /  5.7 °C 39.8 °F /  4.3 °C 30.38 in /  1028.7 hPa Calm     91 % 0.00 in /  0 mm 37.0 W/m2 BKN
07:45 42.2 °F /  5.7 °C 39.8 °F /  4.3 °C 30.38 in /  1028.7 hPa Calm     91 % 0.00 in /  0 mm 44.0 W/m2 BKN
07:50 42.2 °F /  5.7 °C 39.8 °F /  4.3 °C 30.38 in /  1028.7 hPa Calm     91 % 0.00 in /  0 mm 60.0 W/m2 BKN
07:55 42.3 °F /  5.7 °C 40.1 °F /  4.5 °C 30.38 in /  1028.7 hPa Calm     92 % 0.00 in /  0 mm 62.0 W/m2 BKN
08:00 42.4 °F /  5.8 °C 40.2 °F /  4.6 °C 30.39 in /  1029 hPa Calm     92 % 0.00 in /  0 mm 70.0 W/m2 BKN
08:05 42.5 °F /  5.8 °C 40.3 °F /  4.6 °C 30.39 in /  1029 hPa Calm     92 % 0.00 in /  0 mm 81.0 W/m2 BKN
08:10 42.7 °F /  5.9 °C 40.5 °F /  4.7 °C 30.39 in /  1029 hPa Calm     92 % 0.00 in /  0 mm 86.0 W/m2 BKN
08:15 42.7 °F /  5.9 °C 40.5 °F /  4.7 °C 30.40 in /  1029.3 hPa Calm     92 % 0.00 in /  0 mm 88.0 W/m2 BKN
08:20 42.9 °F /  6.1 °C 40.7 °F /  4.8 °C 30.39 in /  1029 hPa Calm     92 % 0.00 in /  0 mm 100.0 W/m2 BKN
08:25 43.1 °F /  6.2 °C 40.9 °F /  4.9 °C 30.40 in /  1029.3 hPa Calm     92 % 0.00 in /  0 mm 114.0 W/m2 BKN
08:30 43.3 °F /  6.3 °C 41.1 °F /  5.1 °C 30.40 in /  1029.3 hPa Calm     92 % 0.00 in /  0 mm 95.0 W/m2 BKN
08:35 43.6 °F /  6.4 °C 41.4 °F /  5.2 °C 30.40 in /  1029.3 hPa NE 3.5 mph /  5.6 km/h 3.5 mph /  5.6 km/h 92 % 0.00 in /  0 mm 98.0 W/m2 BKN
08:40 43.8 °F /  6.6 °C 41.9 °F /  5.5 °C 30.40 in /  1029.3 hPa Calm     93 % 0.00 in /  0 mm 86.0 W/m2 BKN
08:45 44.1 °F /  6.7 °C 42.2 °F /  5.7 °C 30.40 in /  1029.3 hPa NE 1.2 mph /  1.9 km/h 1.2 mph /  1.9 km/h 93 % 0.00 in /  0 mm 153.0 W/m2 BKN
08:50 44.4 °F /  6.9 °C 42.5 °F /  5.8 °C 30.40 in /  1029.3 hPa NE 1.2 mph /  1.9 km/h 1.2 mph /  1.9 km/h 93 % 0.00 in /  0 mm 160.0 W/m2 BKN
08:55 44.8 °F /  7.1 °C 42.9 °F /  6.1 °C 30.40 in /  1029.3 hPa ENE 2.3 mph /  3.7 km/h 2.3 mph /  3.7 km/h 93 % 0.00 in /  0 mm 137.0 W/m2 BKN
09:00 45.1 °F /  7.3 °C 43.2 °F /  6.2 °C 30.40 in /  1029.3 hPa East 1.2 mph /  1.9 km/h 1.2 mph /  1.9 km/h 93 % 0.00 in /  0 mm 102.0 W/m2 BKN
09:05 45.3 °F /  7.4 °C 43.4 °F /  6.3 °C 30.40 in /  1029.3 hPa East 1.2 mph /  1.9 km/h 1.2 mph /  1.9 km/h 93 % 0.00 in /  0 mm 144.0 W/m2 BKN
09:10 45.5 °F /  7.5 °C 43.6 °F /  6.4 °C 30.40 in /  1029.3 hPa Calm     93 % 0.00 in /  0 mm 146.0 W/m2 BKN
09:15 45.8 °F /  7.7 °C 43.9 °F /  6.6 °C 30.40 in /  1029.3 hPa Calm     93 % 0.00 in /  0 mm 181.0 W/m2 BKN
09:20 46.1 °F /  7.8 °C 44.2 °F /  6.8 °C 30.40 in /  1029.3 hPa Calm     93 % 0.00 in /  0 mm 151.0 W/m2 BKN
09:25 46.5 °F /  8.1 °C 44.6 °F /  7 °C 30.40 in /  1029.3 hPa Calm     93 % 0.00 in /  0 mm 183.0 W/m2 BKN
09:30 46.9 °F /  8.3 °C 45.0 °F /  7.2 °C 30.40 in /  1029.3 hPa East 2.3 mph /  3.7 km/h 2.3 mph /  3.7 km/h 93 % 0.00 in /  0 mm 186.0 W/m2 BKN
09:35 47.4 °F /  8.6 °C 45.5 °F /  7.5 °C 30.40 in /  1029.3 hPa East 1.2 mph /  1.9 km/h 1.2 mph /  1.9 km/h 93 % 0.00 in /  0 mm 179.0 W/m2 BKN
09:40 48.8 °F /  9.3 °C 46.6 °F /  8.1 °C 30.40 in /  1029.3 hPa East 2.3 mph /  3.7 km/h 2.3 mph /  3.7 km/h 92 % 0.00 in /  0 mm 577.0 W/m2 BKN
09:45 49.5 °F /  9.7 °C 46.7 °F /  8.2 °C 30.40 in /  1029.3 hPa East 2.3 mph /  3.7 km/h 2.3 mph /  3.7 km/h 90 % 0.00 in /  0 mm 197.0 W/m2 BKN
09:50 49.9 °F /  9.9 °C 46.8 °F /  8.2 °C 30.40 in /  1029.3 hPa Calm     89 % 0.00 in /  0 mm 239.0 W/m2 BKN
09:55 50.2 °F /  10.1 °C 46.8 °F /  8.2 °C 30.40 in /  1029.3 hPa ENE 1.2 mph /  1.9 km/h 1.2 mph /  1.9 km/h 88 % 0.00 in /  0 mm 199.0 W/m2 BKN
10:00 50.4 °F /  10.2 °C 46.4 °F /  8 °C 30.40 in /  1029.3 hPa Calm     86 % 0.00 in /  0 mm 274.0 W/m2 BKN
10:05 51.5 °F /  10.8 °C 47.5 °F /  8.6 °C 30.40 in /  1029.3 hPa East 2.3 mph /  3.7 km/h 2.3 mph /  3.7 km/h 86 % 0.00 in /  0 mm 294.0 W/m2 BKN
10:10 51.9 °F /  11.1 °C 46.9 °F /  8.3 °C 30.40 in /  1029.3 hPa ENE 2.3 mph /  3.7 km/h 2.3 mph /  3.7 km/h 83 % 0.00 in /  0 mm 253.0 W/m2 BKN
10:15 52.0 °F /  11.1 °C 46.7 °F /  8.2 °C 30.40 in /  1029.3 hPa Calm     82 % 0.00 in /  0 mm 345.0 W/m2 BKN
10:20 52.4 °F /  11.3 °C 47.1 °F /  8.4 °C 30.40 in /  1029.3 hPa Calm     82 % 0.00 in /  0 mm 559.0 W/m2 BKN
10:25 52.3 °F /  11.3 °C 46.3 °F /  7.9 °C 30.40 in /  1029.3 hPa Calm     80 % 0.00 in /  0 mm 297.0 W/m2 BKN
10:30 53.3 °F /  11.8 °C 47.3 °F /  8.5 °C 30.40 in /  1029.3 hPa ENE 1.2 mph /  1.9 km/h 1.2 mph /  1.9 km/h 80 % 0.00 in /  0 mm 715.0 W/m2 BKN
10:35 53.7 °F /  12.1 °C 47.3 °F /  8.5 °C 30.39 in /  1029 hPa East 1.2 mph /  1.9 km/h 1.2 mph /  1.9 km/h 79 % 0.00 in /  0 mm 322.0 W/m2 BKN
10:40 54.0 °F /  12.2 °C 47.3 °F /  8.5 °C 30.39 in /  1029 hPa NNW 3.5 mph /  5.6 km/h 3.5 mph /  5.6 km/h 78 % 0.00 in /  0 mm 385.0 W/m2 BKN
10:45 54.4 °F /  12.4 °C 47.0 °F /  8.3 °C 30.39 in /  1029 hPa NE 1.2 mph /  1.9 km/h 1.2 mph /  1.9 km/h 76 % 0.00 in /  0 mm 374.0 W/m2 BKN
10:50 55.0 °F /  12.8 °C 47.2 °F /  8.4 °C 30.39 in /  1029 hPa Calm     75 % 0.00 in /  0 mm 359.0 W/m2 SCT
10:55 55.0 °F /  12.8 °C 47.6 °F /  8.7 °C 30.39 in /  1029 hPa NNE 2.0 mph /  3.2 km/h 2.0 mph /  3.2 km/h 76 % 0.00 in /  0 mm 320.0 W/m2 SCT
11:00 55.3 °F /  12.9 °C 47.5 °F /  8.6 °C 30.39 in /  1029 hPa NE 2.0 mph /  3.2 km/h 2.0 mph /  3.2 km/h 75 % 0.00 in /  0 mm 413.0 W/m2 SCT
11:05 55.6 °F /  13.1 °C 47.4 °F /  8.6 °C 30.39 in /  1029 hPa ENE 1.0 mph /  1.6 km/h   74 % 0.00 in /  0 mm 492.0 W/m2 SCT
11:10 56.5 °F /  13.6 °C 48.3 °F /  9.1 °C 30.38 in /  1028.7 hPa SE 1.2 mph /  1.9 km/h   74 % 0.00 in /  0 mm 622.0 W/m2 SCT
11:15 57.0 °F /  13.9 °C 48.4 °F /  9.1 °C 30.38 in /  1028.7 hPa WNW 3.5 mph /  5.6 km/h 3.5 mph /  5.6 km/h 73 % 0.00 in /  0 mm 615.0 W/m2 SCT
11:20 57.5 °F /  14.2 °C 49.3 °F /  9.6 °C 30.38 in /  1028.7 hPa ESE 3.0 mph /  4.8 km/h 3.0 mph /  4.8 km/h 74 % 0.00 in /  0 mm 615.0 W/m2 FEW
11:25 57.8 °F /  14.3 °C 49.2 °F /  9.6 °C 30.38 in /  1028.7 hPa ESE 2.3 mph /  3.7 km/h 2.3 mph /  3.7 km/h 73 % 0.00 in /  0 mm 615.0 W/m2 FEW
11:30 57.8 °F /  14.3 °C 49.2 °F /  9.6 °C 30.38 in /  1028.7 hPa SSE 2.3 mph /  3.7 km/h 2.3 mph /  3.7 km/h 73 % 0.00 in /  0 mm 613.0 W/m2 FEW
11:35 59.6 °F /  15.3 °C 49.8 °F /  9.9 °C 30.37 in /  1028.3 hPa ENE 2.3 mph /  3.7 km/h 2.3 mph /  3.7 km/h 70 % 0.00 in /  0 mm 621.0 W/m2 FEW
11:40 59.8 °F /  15.4 °C 49.2 °F /  9.6 °C 30.37 in /  1028.3 hPa Calm     68 % 0.00 in /  0 mm 624.0 W/m2 FEW
11:45 59.7 °F /  15.4 °C 48.7 °F /  9.3 °C 30.37 in /  1028.3 hPa South 1.2 mph /  1.9 km/h 1.2 mph /  1.9 km/h 67 % 0.00 in /  0 mm 628.0 W/m2 FEW
11:50 59.8 °F /  15.4 °C 48.8 °F /  9.3 °C 30.37 in /  1028.3 hPa NW 1.2 mph /  1.9 km/h 1.2 mph /  1.9 km/h 67 % 0.00 in /  0 mm 671.0 W/m2 SCT
11:55 59.6 °F /  15.3 °C 49.4 °F /  9.7 °C 30.37 in /  1028.3 hPa East 4.0 mph /  6.4 km/h 4.0 mph /  6.4 km/h 69 % 0.00 in /  0 mm 763.0 W/m2 SCT
12:00 60.7 °F /  15.9 °C 49.3 °F /  9.6 °C 30.36 in /  1028 hPa SSW 2.3 mph /  3.7 km/h 2.3 mph /  3.7 km/h 66 % 0.00 in /  0 mm 357.0 W/m2 SCT
12:05 60.3 °F /  15.7 °C 49.7 °F /  9.8 °C 30.36 in /  1028 hPa SSE 2.3 mph /  3.7 km/h 2.3 mph /  3.7 km/h 68 % 0.00 in /  0 mm 374.0 W/m2 SCT
12:11 60.1 °F /  15.6 °C 49.5 °F /  9.7 °C 30.36 in /  1028 hPa East 2.3 mph /  3.7 km/h 2.3 mph /  3.7 km/h 68 % 0.00 in /  0 mm 234.0 W/m2 SCT
12:16 59.9 °F /  15.5 °C 50.1 °F /  10.1 °C 30.35 in /  1027.7 hPa ESE 3.5 mph /  5.6 km/h 3.5 mph /  5.6 km/h 70 % 0.00 in /  0 mm 211.0 W/m2 SCT
12:21 59.6 °F /  15.3 °C 49.8 °F /  9.9 °C 30.35 in /  1027.7 hPa ESE 3.5 mph /  5.6 km/h 3.5 mph /  5.6 km/h 70 % 0.00 in /  0 mm 250.0 W/m2 BKN
12:26 59.6 °F /  15.3 °C 50.2 °F /  10.1 °C 30.35 in /  1027.7 hPa ESE 1.2 mph /  1.9 km/h   71 % 0.00 in /  0 mm 287.0 W/m2 BKN
12:31 59.8 °F /  15.4 °C 49.6 °F /  9.8 °C 30.35 in /  1027.7 hPa ESE 2.3 mph /  3.7 km/h 2.3 mph /  3.7 km/h 69 % 0.00 in /  0 mm 241.0 W/m2 BKN
12:36 59.7 °F /  15.4 °C 49.5 °F /  9.7 °C 30.35 in /  1027.7 hPa ESE 2.0 mph /  3.2 km/h 2.0 mph /  3.2 km/h 69 % 0.00 in /  0 mm 237.0 W/m2 BKN
12:41 59.7 °F /  15.4 °C 49.9 °F /  9.9 °C 30.35 in /  1027.7 hPa SE 2.3 mph /  3.7 km/h 2.3 mph /  3.7 km/h 70 % 0.00 in /  0 mm 202.0 W/m2 BKN
12:46 59.7 °F /  15.4 °C 49.5 °F /  9.7 °C 30.34 in /  1027.3 hPa North 2.3 mph /  3.7 km/h 2.3 mph /  3.7 km/h 69 % 0.00 in /  0 mm 218.0 W/m2 BKN
12:51 59.8 °F /  15.4 °C 49.2 °F /  9.6 °C 30.34 in /  1027.3 hPa NNW 2.0 mph /  3.2 km/h 2.0 mph /  3.2 km/h 68 % 0.00 in /  0 mm 218.0 W/m2 BKN
12:56 60.0 °F /  15.6 °C 48.2 °F /  9 °C 30.34 in /  1027.3 hPa NNE 9.2 mph /  14.8 km/h 9.2 mph /  14.8 km/h 65 % 0.00 in /  0 mm 200.0 W/m2 BKN
13:01 60.2 °F /  15.7 °C 47.6 °F /  8.7 °C 30.34 in /  1027.3 hPa NNE 5.0 mph /  8 km/h 5.0 mph /  8 km/h 63 % 0.00 in /  0 mm 206.0 W/m2 BKN
13:11 60.4 °F /  15.8 °C 47.7 °F /  8.7 °C 30.33 in /  1027 hPa NE 5.0 mph /  8 km/h 5.0 mph /  8 km/h 63 % 0.00 in /  0 mm 260.0 W/m2 BKN
13:16 60.5 °F /  15.8 °C 47.4 °F /  8.6 °C 30.33 in /  1027 hPa NNE 5.8 mph /  9.3 km/h 5.8 mph /  9.3 km/h 62 % 0.00 in /  0 mm 216.0 W/m2 BKN
13:21 60.6 °F /  15.9 °C 47.9 °F /  8.8 °C 30.33 in /  1027 hPa NE 3.5 mph /  5.6 km/h 3.5 mph /  5.6 km/h 63 % 0.00 in /  0 mm 258.0 W/m2 BKN
13:26 60.7 °F /  15.9 °C 47.6 °F /  8.7 °C 30.33 in /  1027 hPa North 9.2 mph /  14.8 km/h 9.2 mph /  14.8 km/h 62 % 0.00 in /  0 mm 318.0 W/m2 BKN
13:31 61.1 °F /  16.2 °C 47.5 °F /  8.6 °C 30.33 in /  1027 hPa ENE 5.8 mph /  9.3 km/h 5.8 mph /  9.3 km/h 61 % 0.00 in /  0 mm 294.0 W/m2 BKN
13:36 62.2 °F /  16.8 °C 48.6 °F /  9.2 °C 30.32 in /  1026.6 hPa ENE 5.0 mph /  8 km/h 5.0 mph /  8 km/h 61 % 0.00 in /  0 mm 369.0 W/m2 BKN
13:41 62.6 °F /  17 °C 48.1 °F /  8.9 °C 30.32 in /  1026.6 hPa NNE 11.5 mph /  18.5 km/h 11.5 mph /  18.5 km/h 59 % 0.00 in /  0 mm 297.0 W/m2 BKN
13:46 62.6 °F /  17 °C 48.5 °F /  9.2 °C 30.32 in /  1026.6 hPa NE 9.0 mph /  14.5 km/h 9.0 mph /  14.5 km/h 60 % 0.00 in /  0 mm 250.0 W/m2 BKN
13:51 62.3 °F /  16.8 °C 47.8 °F /  8.8 °C 30.32 in /  1026.6 hPa NE 8.1 mph /  13 km/h 8.1 mph /  13 km/h 59 % 0.00 in /  0 mm 295.0 W/m2 BKN
13:56 62.7 °F /  17.1 °C 48.2 °F /  9 °C 30.32 in /  1026.6 hPa ENE 8.1 mph /  13 km/h 8.1 mph /  13 km/h 59 % 0.00 in /  0 mm 287.0 W/m2 BKN
14:01 62.5 °F /  16.9 °C 48.0 °F /  8.9 °C 30.32 in /  1026.6 hPa ENE 10.4 mph /  16.7 km/h 10.4 mph /  16.7 km/h 59 % 0.00 in /  0 mm 257.0 W/m2 BKN
14:06 62.2 °F /  16.8 °C 47.7 °F /  8.7 °C 30.32 in /  1026.6 hPa NE 4.6 mph /  7.4 km/h 4.6 mph /  7.4 km/h 59 % 0.00 in /  0 mm 265.0 W/m2 BKN
14:11 62.4 °F /  16.9 °C 48.8 °F /  9.3 °C 30.32 in /  1026.6 hPa ENE 3.5 mph /  5.6 km/h 3.5 mph /  5.6 km/h 61 % 0.00 in /  0 mm 221.0 W/m2 BKN
14:16 62.3 °F /  16.8 °C 48.2 °F /  9 °C 30.32 in /  1026.6 hPa North 3.5 mph /  5.6 km/h 3.5 mph /  5.6 km/h 60 % 0.00 in /  0 mm 220.0 W/m2 BKN
14:21 62.2 °F /  16.8 °C 48.1 °F /  8.9 °C 30.32 in /  1026.6 hPa North 3.5 mph /  5.6 km/h 3.5 mph /  5.6 km/h 60 % 0.00 in /  0 mm 218.0 W/m2 BKN
14:26 62.2 °F /  16.8 °C 47.7 °F /  8.7 °C 30.32 in /  1026.6 hPa East 10.4 mph /  16.7 km/h 10.4 mph /  16.7 km/h 59 % 0.00 in /  0 mm 155.0 W/m2 BKN
14:31 62.0 °F /  16.7 °C 47.0 °F /  8.3 °C 30.32 in /  1026.6 hPa NNE 4.6 mph /  7.4 km/h 4.6 mph /  7.4 km/h 58 % 0.00 in /  0 mm 158.0 W/m2 BKN
14:36 61.8 °F /  16.6 °C 47.8 °F /  8.8 °C 30.32 in /  1026.6 hPa NE 3.5 mph /  5.6 km/h 3.5 mph /  5.6 km/h 60 % 0.00 in /  0 mm 190.0 W/m2 BKN
14:41 62.0 °F /  16.7 °C 48.8 °F /  9.3 °C 30.32 in /  1026.6 hPa NNE 3.5 mph /  5.6 km/h 3.5 mph /  5.6 km/h 62 % 0.00 in /  0 mm 353.0 W/m2 BKN
14:46 62.4 °F /  16.9 °C 48.3 °F /  9.1 °C 30.32 in /  1026.6 hPa ENE 10.4 mph /  16.7 km/h 10.4 mph /  16.7 km/h 60 % 0.00 in /  0 mm 171.0 W/m2 BKN
14:51 62.4 °F /  16.9 °C 47.9 °F /  8.8 °C 30.32 in /  1026.6 hPa NE 4.6 mph /  7.4 km/h 4.6 mph /  7.4 km/h 59 % 0.00 in /  0 mm 155.0 W/m2 BKN
14:56 62.1 °F /  16.7 °C 47.6 °F /  8.7 °C 30.32 in /  1026.6 hPa East 5.8 mph /  9.3 km/h 5.8 mph /  9.3 km/h 59 % 0.00 in /  0 mm 188.0 W/m2 BKN
15:01 62.2 °F /  16.8 °C 48.1 °F /  8.9 °C 30.32 in /  1026.6 hPa NE 8.1 mph /  13 km/h 8.1 mph /  13 km/h 60 % 0.00 in /  0 mm 199.0 W/m2 BKN
15:06 62.6 °F /  17 °C 48.5 °F /  9.2 °C 30.32 in /  1026.6 hPa East 3.5 mph /  5.6 km/h 3.5 mph /  5.6 km/h 60 % 0.00 in /  0 mm 192.0 W/m2 BKN
15:11 63.2 °F /  17.3 °C 49.1 °F /  9.5 °C 30.32 in /  1026.6 hPa NNE 9.2 mph /  14.8 km/h 9.2 mph /  14.8 km/h 60 % 0.00 in /  0 mm 527.0 W/m2 BKN
15:16 63.3 °F /  17.4 °C 48.3 °F /  9.1 °C 30.32 in /  1026.6 hPa NNE 9.2 mph /  14.8 km/h 9.2 mph /  14.8 km/h 58 % 0.00 in /  0 mm 151.0 W/m2 BKN
15:21 63.2 °F /  17.3 °C 48.2 °F /  9 °C 30.32 in /  1026.6 hPa East 4.6 mph /  7.4 km/h 4.6 mph /  7.4 km/h 58 % 0.00 in /  0 mm 134.0 W/m2 BKN
15:26 63.0 °F /  17.2 °C 47.5 °F /  8.6 °C 30.32 in /  1026.6 hPa ENE 2.3 mph /  3.7 km/h 2.3 mph /  3.7 km/h 57 % 0.00 in /  0 mm 127.0 W/m2 BKN
15:31 62.9 °F /  17.2 °C 47.4 °F /  8.6 °C 30.32 in /  1026.6 hPa NE 3.5 mph /  5.6 km/h 3.5 mph /  5.6 km/h 57 % 0.00 in /  0 mm 121.0 W/m2 BKN
15:36 62.6 °F /  17 °C 48.1 °F /  8.9 °C 30.32 in /  1026.6 hPa NE 3.5 mph /  5.6 km/h 3.5 mph /  5.6 km/h 59 % 0.00 in /  0 mm 120.0 W/m2 BKN
15:41 62.3 °F /  16.8 °C 47.3 °F /  8.5 °C 30.32 in /  1026.6 hPa ENE 4.6 mph /  7.4 km/h 4.6 mph /  7.4 km/h 58 % 0.00 in /  0 mm 116.0 W/m2 BKN
15:46 62.1 °F /  16.7 °C 47.6 °F /  8.7 °C 30.32 in /  1026.6 hPa NE 2.3 mph /  3.7 km/h 2.3 mph /  3.7 km/h 59 % 0.00 in /  0 mm 104.0 W/m2 BKN
15:51 61.9 °F /  16.6 °C 47.4 °F /  8.6 °C 30.32 in /  1026.6 hPa NNE 2.0 mph /  3.2 km/h 2.0 mph /  3.2 km/h 59 % 0.00 in /  0 mm 125.0 W/m2 BKN
15:56 61.8 °F /  16.6 °C 48.2 °F /  9 °C 30.32 in /  1026.6 hPa North 2.3 mph /  3.7 km/h 2.3 mph /  3.7 km/h 61 % 0.00 in /  0 mm 142.0 W/m2 BKN
16:01 61.8 °F /  16.6 °C 47.8 °F /  8.8 °C 30.32 in /  1026.6 hPa ENE 3.5 mph /  5.6 km/h 3.5 mph /  5.6 km/h 60 % 0.00 in /  0 mm 114.0 W/m2 SCT
16:06 61.9 °F /  16.6 °C 47.9 °F /  8.8 °C 30.32 in /  1026.6 hPa NNE 3.5 mph /  5.6 km/h 3.5 mph /  5.6 km/h 60 % 0.00 in /  0 mm 111.0 W/m2 SCT
16:11 61.9 °F /  16.6 °C 47.9 °F /  8.8 °C 30.32 in /  1026.6 hPa NE 3.5 mph /  5.6 km/h 3.5 mph /  5.6 km/h 60 % 0.00 in /  0 mm 109.0 W/m2 SCT
16:17 61.9 °F /  16.6 °C 47.9 °F /  8.8 °C 30.32 in /  1026.6 hPa ENE 3.5 mph /  5.6 km/h 3.5 mph /  5.6 km/h 60 % 0.00 in /  0 mm 65.0 W/m2 BKN
16:22 61.9 °F /  16.6 °C 47.9 °F /  8.8 °C 30.32 in /  1026.6 hPa NE 1.2 mph /  1.9 km/h   60 % 0.00 in /  0 mm 79.0 W/m2 BKN
16:27 61.8 °F /  16.6 °C 48.2 °F /  9 °C 30.32 in /  1026.6 hPa NNE 3.0 mph /  4.8 km/h 3.0 mph /  4.8 km/h 61 % 0.00 in /  0 mm 76.0 W/m2 BKN
16:32 61.7 °F /  16.5 °C 48.1 °F /  8.9 °C 30.32 in /  1026.6 hPa NNE 2.3 mph /  3.7 km/h 2.3 mph /  3.7 km/h 61 % 0.00 in /  0 mm 81.0 W/m2 BKN
16:37 61.7 °F /  16.5 °C 49.0 °F /  9.4 °C 30.32 in /  1026.6 hPa Calm     63 % 0.00 in /  0 mm 54.0 W/m2 BKN
16:42 61.6 °F /  16.4 °C 48.4 °F /  9.1 °C 30.32 in /  1026.6 hPa Calm     62 % 0.00 in /  0 mm 56.0 W/m2 BKN
16:47 61.4 °F /  16.3 °C 48.7 °F /  9.3 °C 30.32 in /  1026.6 hPa Calm     63 % 0.00 in /  0 mm 60.0 W/m2 BKN
16:52 61.3 °F /  16.3 °C 48.6 °F /  9.2 °C 30.32 in /  1026.6 hPa Calm     63 % 0.00 in /  0 mm 56.0 W/m2 BKN
16:57 61.2 °F /  16.2 °C 48.9 °F /  9.4 °C 30.33 in /  1027 hPa Calm     64 % 0.00 in /  0 mm 40.0 W/m2 BKN
17:02 61.1 °F /  16.2 °C 48.8 °F /  9.3 °C 30.33 in /  1027 hPa ENE 1.2 mph /  1.9 km/h 1.2 mph /  1.9 km/h 64 % 0.00 in /  0 mm 32.0 W/m2 SCT
17:07 60.9 °F /  16.1 °C 48.6 °F /  9.2 °C 30.33 in /  1027 hPa ENE 1.2 mph /  1.9 km/h 1.2 mph /  1.9 km/h 64 % 0.00 in /  0 mm 30.0 W/m2 SCT
17:12 60.8 °F /  16 °C 48.5 °F /  9.2 °C 30.33 in /  1027 hPa ENE 1.2 mph /  1.9 km/h 1.2 mph /  1.9 km/h 64 % 0.00 in /  0 mm 30.0 W/m2 SCT
17:17 60.7 °F /  15.9 °C 48.4 °F /  9.1 °C 30.33 in /  1027 hPa Calm     64 % 0.00 in /  0 mm 21.0 W/m2 SCT
17:22 60.4 °F /  15.8 °C 48.2 °F /  9 °C 30.33 in /  1027 hPa Calm     64 % 0.00 in /  0 mm 16.0 W/m2 SCT
17:27 60.2 °F /  15.7 °C 48.4 °F /  9.1 °C 30.33 in /  1027 hPa Calm     65 % 0.00 in /  0 mm 14.0 W/m2 SCT
17:32 59.9 °F /  15.5 °C 48.1 °F /  8.9 °C 30.34 in /  1027.3 hPa Calm     65 % 0.00 in /  0 mm 11.0 W/m2 SCT
17:37 59.6 °F /  15.3 °C 47.8 °F /  8.8 °C 30.34 in /  1027.3 hPa Calm     65 % 0.00 in /  0 mm 9.0 W/m2 SCT
17:42 59.2 °F /  15.1 °C 47.8 °F /  8.8 °C 30.34 in /  1027.3 hPa Calm     66 % 0.00 in /  0 mm 5.0 W/m2 SCT
17:47 58.9 °F /  14.9 °C 47.6 °F /  8.7 °C 30.34 in /  1027.3 hPa Calm     66 % 0.00 in /  0 mm 0.0 W/m2 SCT
17:52 58.5 °F /  14.7 °C 47.6 °F /  8.7 °C 30.34 in /  1027.3 hPa Calm     67 % 0.00 in /  0 mm 0.0 W/m2 SCT
17:57 58.2 °F /  14.6 °C 47.3 °F /  8.5 °C 30.34 in /  1027.3 hPa Calm     67 % 0.00 in /  0 mm 0.0 W/m2 SCT
18:02 57.9 °F /  14.4 °C 47.0 °F /  8.3 °C 30.34 in /  1027.3 hPa Calm     67 % 0.00 in /  0 mm 0.0 W/m2 SCT
18:07 57.7 °F /  14.3 °C 47.2 °F /  8.4 °C 30.34 in /  1027.3 hPa Calm     68 % 0.00 in /  0 mm 0.0 W/m2 SCT
Melbourne Forecast
About Melbourne | City of Melbourne official website